.
WxDataArchive / Data Records for 2010-03-28
2010-03-27 March 2010 2010-03-29

Data Records for Sunday, 28 March 2010

Time	Temp	Chill	HIndex	Humid	Dewpt	 Wind 	HiWind	WindDir	Rain 	Barom 
-----	----	-----	------	-----	-----	------	------	-------	-----	----- 
00:00	40.1	40.1	40.1	73	32.2	2	7	90	0.00	29.931 
00:05	39.8	39.8	39.8	73	31.9	2	9	112	0.00	29.931 
00:10	39.6	39.6	39.6	74	32.0	2	7	112	0.00	29.931 
00:15	39.5	39.5	39.5	74	31.9	2	8	22	0.00	29.926 
00:20	39.3	39.3	39.3	74	31.7	1	4	112	0.00	29.926 
00:25	39.2	39.2	39.2	74	31.6	2	5	112	0.00	29.926 
00:30	39.1	39.1	39.1	74	31.5	2	4	90	0.00	29.920 
00:35	38.9	38.9	38.9	75	31.7	2	4	112	0.00	29.920 
00:40	38.8	38.8	38.8	75	31.6	1	5	112	0.00	29.920 
00:45	38.8	38.8	38.8	75	31.6	1	5	90	0.00	29.912 
00:50	38.6	38.6	38.6	75	31.4	1	5	90	0.00	29.912 
00:55	38.6	38.6	38.6	75	31.4	1	4	90	0.00	29.912 
01:00	38.5	38.5	38.5	75	31.3	1	5	90	0.00	29.912 
01:05	38.5	38.5	38.5	75	31.3	2	5	112	0.00	29.912 
01:10	38.3	38.3	38.3	76	31.4	1	4	112	0.00	29.912 
01:15	38.3	38.3	38.3	76	31.4	2	7	112	0.00	29.902 
01:20	38.3	38.3	38.3	75	31.1	1	5	112	0.00	29.902 
01:25	38.3	38.3	38.3	75	31.1	1	4	112	0.00	29.902 
01:30	38.3	38.3	38.3	75	31.1	1	9	0	0.00	29.891 
01:35	38.3	38.3	38.3	75	31.1	1	4	90	0.00	29.891 
01:40	38.2	38.2	38.2	75	31.0	1	4	90	0.00	29.891 
01:45	38.2	38.2	38.2	75	31.0	2	7	112	0.00	29.879 
01:50	38.2	38.2	38.2	75	31.0	2	7	112	0.00	29.879 
01:55	38.0	38.0	38.0	76	31.1	3	9	112	0.00	29.879 
02:00	38.0	38.0	38.0	76	31.1	3	9	90	0.00	29.864 
02:05	38.0	38.0	38.0	76	31.1	3	7	90	0.00	29.864 
02:10	38.0	38.0	38.0	76	31.1	2	5	90	0.00	29.864 
02:15	38.0	38.0	38.0	76	31.1	2	6	112	0.00	29.855 
02:20	38.0	38.0	38.0	76	31.1	3	5	112	0.00	29.855 
02:25	38.0	38.0	38.0	76	31.1	1	4	112	0.00	29.855 
02:30	38.0	38.0	38.0	76	31.1	0	3	90	0.00	29.863 
02:35	38.0	38.0	38.0	76	31.1	0	2	90	0.00	29.863 
02:40	38.0	38.0	38.0	76	31.1	0	2	90	0.00	29.863 
02:45	38.2	38.2	38.2	77	31.6	1	3	315	0.00	29.893 
02:50	38.3	38.3	38.3	77	31.7	0	2	45	0.00	29.893 
02:55	38.3	38.3	38.3	77	31.7	0	0	---	0.00	29.893 
03:00	38.5	38.5	38.5	78	32.2	0	0	---	0.00	29.877 
03:05	38.5	38.5	38.5	79	32.6	0	0	---	0.00	29.877 
03:10	38.5	38.5	38.5	80	32.9	0	0	---	0.00	29.877 
03:15	38.5	38.5	38.5	81	33.2	0	0	---	0.00	29.856 
03:20	38.3	38.3	38.3	81	33.0	0	0	---	0.00	29.856 
03:25	38.3	38.3	38.3	82	33.3	0	0	---	0.00	29.856 
03:30	38.3	38.3	38.3	83	33.6	0	1	45	0.00	29.842 
03:35	38.3	38.3	38.3	84	33.9	0	1	45	0.00	29.842 
03:40	38.3	38.3	38.3	84	33.9	0	0	---	0.00	29.842 
03:45	38.3	38.3	38.3	84	33.9	0	0	---	0.00	29.828 
03:50	38.3	38.3	38.3	85	34.2	1	2	45	0.00	29.828 
03:55	38.3	38.3	38.3	85	34.2	1	2	45	0.00	29.828 
04:00	38.3	38.3	38.3	85	34.2	0	1	45	0.00	29.824 
04:05	38.5	38.5	38.5	85	34.4	0	2	45	0.00	29.824 
04:10	38.3	38.3	38.3	85	34.2	1	4	45	0.00	29.824 
04:15	38.3	38.3	38.3	85	34.2	0	3	90	0.00	29.813 
04:20	38.3	38.3	38.3	85	34.2	1	3	90	0.00	29.813 
04:25	38.3	38.3	38.3	86	34.5	1	3	90	0.00	29.813 
04:30	38.3	38.3	38.3	86	34.5	1	3	90	0.00	29.803 
04:35	38.2	38.2	38.2	86	34.4	1	2	90	0.00	29.803 
04:40	38.2	38.2	38.2	86	34.4	1	2	90	0.00	29.803 
04:45	38.2	38.2	38.2	86	34.4	1	3	90	0.00	29.794 
04:50	38.0	38.0	38.0	87	34.5	1	3	90	0.00	29.794 
04:55	37.9	37.9	37.9	87	34.4	1	3	90	0.00	29.794 
05:00	37.9	37.9	37.9	87	34.4	0	4	90	0.00	29.785 
05:05	37.8	37.8	37.8	87	34.3	1	3	90	0.00	29.785 
05:10	37.8	37.8	37.8	87	34.3	1	3	90	0.00	29.785 
05:15	37.8	37.8	37.8	87	34.3	1	3	90	0.00	29.783 
05:20	37.8	37.8	37.8	87	34.3	1	4	90	0.00	29.783 
05:25	37.8	37.8	37.8	88	34.6	1	2	90	0.00	29.783 
05:30	37.8	37.8	37.8	88	34.6	1	3	90	0.00	29.775 
05:35	37.6	37.6	37.6	88	34.4	1	3	90	0.00	29.775 
05:40	37.6	37.6	37.6	88	34.4	1	2	90	0.00	29.775 
05:45	37.6	37.6	37.6	88	34.4	2	3	112	0.00	29.766 
05:50	37.8	37.8	37.8	88	34.6	1	4	90	0.00	29.766 
05:55	37.8	37.8	37.8	88	34.6	1	3	90	0.00	29.766 
06:00	37.9	37.9	37.9	89	35.0	1	3	90	0.00	29.765 
06:05	38.0	38.0	38.0	89	35.1	1	3	90	0.00	29.765 
06:10	38.2	38.2	38.2	89	35.2	0	2	90	0.00	29.765 
06:15	38.2	38.2	38.2	89	35.2	0	2	90	0.00	29.764 
06:20	38.2	38.2	38.2	89	35.2	0	2	90	0.00	29.764 
06:25	38.3	38.3	38.3	90	35.6	1	2	90	0.00	29.764 
06:30	38.5	38.5	38.5	90	35.8	1	3	90	0.00	29.756 
06:35	38.5	38.5	38.5	90	35.8	1	2	90	0.00	29.756 
06:40	38.6	38.6	38.6	91	36.2	1	3	90	0.00	29.756 
06:45	38.8	38.8	38.8	91	36.4	1	3	90	0.00	29.758 
06:50	38.9	38.9	38.9	92	36.8	0	2	90	0.00	29.758 
06:55	39.6	39.6	39.6	93	37.7	1	5	135	0.00	29.758 
07:00	40.5	40.5	40.5	93	38.6	1	5	135	0.01	29.754 
07:05	41.1	41.1	41.1	93	39.2	1	3	112	0.00	29.754 
07:10	41.5	41.5	41.5	93	39.6	0	2	112	0.00	29.754 
07:15	41.9	41.9	41.9	94	40.3	2	5	112	0.00	29.748 
07:20	43.1	43.1	43.1	94	41.5	2	5	135	0.00	29.748 
07:25	44.1	44.1	44.1	95	42.8	2	6	90	0.00	29.748 
07:30	45.1	45.1	45.1	95	43.8	3	11	90	0.00	29.733 
07:35	45.7	43.9	45.7	94	44.1	4	11	90	0.01	29.733 
07:40	46.1	43.6	46.1	94	44.5	5	13	90	0.00	29.733 
07:45	46.1	44.4	46.1	94	44.5	4	7	90	0.00	29.728 
07:50	46.1	44.4	46.1	93	44.2	4	10	90	0.00	29.728 
07:55	46.0	43.5	46.0	93	44.1	5	13	90	0.01	29.728 
08:00	45.7	43.9	45.7	93	43.8	4	10	90	0.00	29.723 
08:05	45.5	43.7	45.5	93	43.6	4	11	90	0.00	29.723 
08:10	45.4	43.6	45.4	93	43.5	4	11	90	0.00	29.723 
08:15	45.4	43.6	45.4	93	43.5	4	13	90	0.00	29.723 
08:20	45.2	43.3	45.2	93	43.3	4	10	90	0.00	29.723 
08:25	45.2	43.3	45.2	92	43.0	4	9	90	0.00	29.723 
08:30	45.4	43.6	45.4	92	43.2	4	11	68	0.00	29.715 
08:35	45.4	43.6	45.4	92	43.2	4	11	90	0.00	29.715 
08:40	45.4	42.8	45.4	92	43.2	5	12	90	0.01	29.715 
08:45	45.5	42.9	45.5	92	43.3	5	13	90	0.00	29.710 
08:50	45.5	43.7	45.5	92	43.3	4	13	112	0.00	29.710 
08:55	45.5	45.5	45.5	92	43.3	3	6	90	0.00	29.710 
09:00	45.4	43.6	45.4	92	43.2	4	10	90	0.01	29.700 
09:05	45.4	43.6	45.4	92	43.2	4	16	90	0.00	29.700 
09:10	45.4	42.8	45.4	92	43.2	5	10	90	0.00	29.700 
09:15	45.4	43.6	45.4	92	43.2	4	9	90	0.01	29.702 
09:20	45.4	43.6	45.4	93	43.5	4	14	90	0.01	29.702 
09:25	45.2	42.6	45.2	93	43.3	5	14	90	0.00	29.702 
09:30	45.2	42.6	45.2	93	43.3	5	11	90	0.02	29.700 
09:35	45.1	43.2	45.1	93	43.2	4	11	112	0.02	29.700 
09:40	45.1	41.8	45.1	94	43.5	6	11	90	0.02	29.700 
09:45	45.1	42.5	45.1	94	43.5	5	10	90	0.04	29.702 
09:50	45.1	43.2	45.1	94	43.5	4	12	90	0.03	29.702 
09:55	44.9	43.0	44.9	94	43.3	4	7	90	0.02	29.702 
10:00	44.9	44.9	44.9	94	43.3	2	6	90	0.02	29.704 
10:05	44.8	44.8	44.8	94	43.2	2	5	90	0.01	29.704 
10:10	44.8	44.8	44.8	95	43.5	2	6	90	0.01	29.704 
10:15	44.8	44.8	44.8	95	43.5	2	6	90	0.00	29.707 
10:20	44.8	44.8	44.8	95	43.5	3	9	90	0.01	29.707 
10:25	44.6	44.6	44.6	95	43.3	3	6	90	0.01	29.707 
10:30	44.6	44.6	44.6	95	43.3	2	6	112	0.01	29.708 
10:35	44.6	44.6	44.6	95	43.3	2	4	112	0.01	29.708 
10:40	44.6	44.6	44.6	95	43.3	2	4	90	0.01	29.708 
10:45	44.6	44.6	44.6	95	43.3	1	2	112	0.01	29.709 
10:50	44.6	44.6	44.6	95	43.3	1	4	112	0.01	29.709 
10:55	44.6	44.6	44.6	95	43.3	1	4	90	0.01	29.709 
11:00	44.6	44.6	44.6	95	43.3	1	3	112	0.02	29.706 
11:05	44.6	44.6	44.6	95	43.3	1	4	112	0.01	29.706 
11:10	44.6	44.6	44.6	95	43.3	1	4	135	0.01	29.706 
11:15	44.6	44.6	44.6	95	43.3	1	4	135	0.01	29.710 
11:20	44.6	44.6	44.6	96	43.5	0	2	112	0.01	29.710 
11:25	44.8	44.8	44.8	96	43.7	1	3	112	0.01	29.710 
11:30	44.8	44.8	44.8	96	43.7	1	3	90	0.01	29.707 
11:35	44.8	44.8	44.8	95	43.5	1	5	112	0.01	29.707 
11:40	44.6	44.6	44.6	95	43.3	2	4	90	0.02	29.707 
11:45	44.6	44.6	44.6	95	43.3	1	4	90	0.02	29.707 
11:50	44.5	44.5	44.5	95	43.2	1	4	112	0.02	29.707 
11:55	44.5	44.5	44.5	95	43.2	1	3	112	0.02	29.707 
12:00	44.3	44.3	44.3	95	43.0	3	7	112	0.01	29.706 
12:05	44.3	44.3	44.3	95	43.0	2	5	112	0.01	29.706 
12:10	44.3	44.3	44.3	95	43.0	2	4	90	0.01	29.706 
12:15	44.3	44.3	44.3	95	43.0	2	4	135	0.02	29.702 
12:20	44.3	44.3	44.3	95	43.0	3	6	90	0.00	29.702 
12:25	44.3	44.3	44.3	95	43.0	2	6	112	0.01	29.702 
12:30	44.3	44.3	44.3	95	43.0	3	6	112	0.01	29.694 
12:35	44.3	44.3	44.3	95	43.0	2	6	90	0.01	29.694 
12:40	44.3	44.3	44.3	95	43.0	3	6	112	0.00	29.694 
12:45	44.3	44.3	44.3	95	43.0	2	5	90	0.01	29.691 
12:50	44.3	44.3	44.3	95	43.0	2	5	112	0.01	29.691 
12:55	44.5	44.5	44.5	95	43.2	1	6	90	0.01	29.691 
13:00	44.5	44.5	44.5	95	43.2	3	6	90	0.00	29.688 
13:05	44.6	44.6	44.6	96	43.5	3	9	90	0.01	29.688 
13:10	44.6	44.6	44.6	95	43.3	3	6	90	0.00	29.688 
13:15	44.6	44.6	44.6	95	43.3	3	7	90	0.01	29.687 
13:20	44.6	44.6	44.6	95	43.3	2	6	90	0.00	29.687 
13:25	44.6	44.6	44.6	95	43.3	2	4	112	0.01	29.687 
13:30	44.8	44.8	44.8	95	43.5	1	4	112	0.00	29.682 
13:35	44.8	44.8	44.8	95	43.5	2	7	90	0.00	29.682 
13:40	44.8	44.8	44.8	95	43.5	3	6	112	0.01	29.682 
13:45	44.6	44.6	44.6	95	43.3	3	7	90	0.00	29.677 
13:50	44.8	44.8	44.8	95	43.5	3	6	112	0.00	29.677 
13:55	44.9	44.9	44.9	95	43.6	3	5	90	0.01	29.677 
14:00	45.1	45.1	45.1	95	43.8	2	6	112	0.00	29.673 
14:05	45.2	45.2	45.2	95	43.9	3	7	90	0.00	29.673 
14:10	45.4	45.4	45.4	95	44.1	3	9	90	0.01	29.673 
14:15	45.5	45.5	45.5	95	44.2	3	7	112	0.00	29.665 
14:20	45.5	45.5	45.5	95	44.2	2	5	112	0.00	29.665 
14:25	45.5	43.7	45.5	95	44.2	4	8	112	0.01	29.665 
14:30	45.5	45.5	45.5	95	44.2	3	6	112	0.00	29.662 
14:35	45.7	45.7	45.7	95	44.4	2	6	112	0.00	29.662 
14:40	46.0	46.0	46.0	95	44.6	2	6	135	0.00	29.662 
14:45	46.0	46.0	46.0	95	44.6	2	6	90	0.00	29.659 
14:50	46.0	46.0	46.0	95	44.6	2	5	112	0.00	29.659 
14:55	46.0	46.0	46.0	95	44.6	2	6	112	0.00	29.659 
15:00	46.0	46.0	46.0	95	44.6	2	6	112	0.00	29.656 
15:05	46.0	46.0	46.0	95	44.6	1	5	112	0.00	29.656 
15:10	46.1	46.1	46.1	95	44.7	0	3	112	0.00	29.656 
15:15	46.2	46.2	46.2	95	44.8	0	3	45	0.00	29.652 
15:20	46.1	46.1	46.1	94	44.5	0	3	45	0.00	29.652 
15:25	46.1	46.1	46.1	95	44.7	0	2	90	0.00	29.652 
15:30	46.1	46.1	46.1	94	44.5	0	2	90	0.00	29.647 
15:35	46.1	46.1	46.1	94	44.5	1	3	90	0.00	29.647 
15:40	46.1	46.1	46.1	94	44.5	0	2	45	0.00	29.647 
15:45	46.1	46.1	46.1	94	44.5	1	3	45	0.00	29.645 
15:50	46.1	46.1	46.1	94	44.5	0	3	135	0.00	29.645 
15:55	46.1	46.1	46.1	94	44.5	0	2	135	0.00	29.645 
16:00	46.1	46.1	46.1	94	44.5	0	3	90	0.00	29.648 
16:05	46.1	46.1	46.1	94	44.5	1	4	135	0.00	29.648 
16:10	46.0	46.0	46.0	94	44.4	0	2	158	0.00	29.648 
16:15	46.1	46.1	46.1	94	44.5	0	2	90	0.00	29.652 
16:20	46.1	46.1	46.1	94	44.5	1	3	135	0.00	29.652 
16:25	46.0	46.0	46.0	94	44.4	1	3	112	0.00	29.652 
16:30	46.1	46.1	46.1	94	44.5	0	2	112	0.00	29.653 
16:35	46.1	46.1	46.1	94	44.5	0	1	112	0.00	29.653 
16:40	46.1	46.1	46.1	94	44.5	0	2	112	0.00	29.653 
16:45	46.1	46.1	46.1	94	44.5	0	1	112	0.00	29.656 
16:50	46.1	46.1	46.1	94	44.5	0	1	112	0.00	29.656 
16:55	46.1	46.1	46.1	94	44.5	0	1	112	0.00	29.656 
17:00	46.1	46.1	46.1	94	44.5	0	4	112	0.00	29.657 
17:05	46.1	46.1	46.1	94	44.5	0	2	112	0.00	29.657 
17:10	46.1	46.1	46.1	94	44.5	0	1	112	0.00	29.657 
17:15	46.2	46.2	46.2	94	44.6	0	2	45	0.00	29.660 
17:20	46.1	46.1	46.1	94	44.5	0	1	22	0.00	29.660 
17:25	46.1	46.1	46.1	94	44.5	0	1	22	0.00	29.660 
17:30	46.1	46.1	46.1	94	44.5	0	2	22	0.00	29.664 
17:35	46.1	46.1	46.1	94	44.5	0	2	22	0.00	29.664 
17:40	46.0	46.0	46.0	94	44.4	0	1	22	0.00	29.664 
17:45	46.0	46.0	46.0	94	44.4	0	2	22	0.00	29.663 
17:50	46.0	46.0	46.0	94	44.4	0	1	90	0.00	29.663 
17:55	46.0	46.0	46.0	94	44.4	0	1	90	0.00	29.663 
18:00	45.8	45.8	45.8	94	44.2	0	2	22	0.00	29.668 
18:05	45.8	45.8	45.8	94	44.2	0	2	338	0.00	29.668 
18:10	45.8	45.8	45.8	94	44.2	0	2	45	0.00	29.668 
18:15	46.0	46.0	46.0	94	44.4	0	1	45	0.01	29.669 
18:20	46.0	46.0	46.0	94	44.4	0	1	45	0.00	29.669 
18:25	46.0	46.0	46.0	94	44.4	0	1	45	0.00	29.669 
18:30	46.1	46.1	46.1	94	44.5	0	0	---	0.00	29.670 
18:35	46.1	46.1	46.1	94	44.5	0	1	45	0.00	29.670 
18:40	46.1	46.1	46.1	94	44.5	0	1	45	0.00	29.670 
18:45	46.1	46.1	46.1	95	44.7	0	1	45	0.00	29.675 
18:50	46.1	46.1	46.1	95	44.7	0	2	45	0.00	29.675 
18:55	46.1	46.1	46.1	95	44.7	0	2	225	0.01	29.675 
19:00	46.1	46.1	46.1	95	44.7	0	1	225	0.00	29.682 
19:05	46.1	46.1	46.1	95	44.7	0	2	45	0.00	29.682 
19:10	46.1	46.1	46.1	95	44.7	0	2	45	0.00	29.682 
19:15	46.1	46.1	46.1	94	44.5	0	2	45	0.00	29.681 
19:20	46.1	46.1	46.1	95	44.7	1	5	315	0.00	29.681 
19:25	45.8	45.8	45.8	94	44.2	1	5	315	0.00	29.681 
19:30	45.8	45.8	45.8	94	44.2	0	4	315	0.00	29.690 
19:35	45.8	45.8	45.8	94	44.2	0	3	45	0.00	29.690 
19:40	45.7	45.7	45.7	94	44.1	1	5	22	0.00	29.690 
19:45	45.2	45.2	45.2	94	43.6	2	6	315	0.00	29.699 
19:50	44.9	44.9	44.9	94	43.3	2	9	22	0.00	29.699 
19:55	44.6	44.6	44.6	93	42.7	1	3	292	0.00	29.699 
20:00	44.5	44.5	44.5	93	42.6	2	6	315	0.00	29.707 
20:05	44.3	44.3	44.3	93	42.4	2	5	315	0.00	29.707 
20:10	44.2	44.2	44.2	92	42.0	1	5	0	0.00	29.707 
20:15	44.2	44.2	44.2	92	42.0	1	4	22	0.01	29.716 
20:20	44.1	44.1	44.1	92	41.9	1	4	0	0.00	29.716 
20:25	44.1	44.1	44.1	92	41.9	1	3	0	0.00	29.716 
20:30	43.9	43.9	43.9	92	41.7	1	4	338	0.01	29.718 
20:35	43.9	43.9	43.9	92	41.7	1	4	22	0.00	29.718 
20:40	43.8	43.8	43.8	93	41.9	1	5	292	0.00	29.718 
20:45	43.8	43.8	43.8	93	41.9	1	4	0	0.00	29.727 
20:50	43.6	43.6	43.6	93	41.7	1	3	315	0.00	29.727 
20:55	43.5	43.5	43.5	93	41.6	1	5	270	0.00	29.727 
21:00	43.5	43.5	43.5	93	41.6	1	4	338	0.00	29.732 
21:05	43.3	43.3	43.3	93	41.4	1	5	22	0.00	29.732 
21:10	43.2	43.2	43.2	93	41.3	1	3	338	0.01	29.732 
21:15	43.1	43.1	43.1	93	41.2	1	5	315	0.00	29.743 
21:20	42.9	42.9	42.9	93	41.0	1	5	315	0.00	29.743 
21:25	42.8	42.8	42.8	93	40.9	1	4	45	0.00	29.743 
21:30	42.6	42.6	42.6	93	40.7	1	3	0	0.00	29.749 
21:35	42.6	42.6	42.6	93	40.7	1	3	315	0.00	29.749 
21:40	42.5	42.5	42.5	93	40.6	1	4	22	0.00	29.749 
21:45	42.5	42.5	42.5	93	40.6	1	3	22	0.00	29.756 
21:50	42.5	42.5	42.5	93	40.6	1	4	22	0.00	29.756 
21:55	42.3	42.3	42.3	93	40.4	1	3	338	0.00	29.756 
22:00	42.3	42.3	42.3	93	40.4	0	3	270	0.00	29.765 
22:05	42.2	42.2	42.2	93	40.3	1	3	338	0.00	29.765 
22:10	42.2	42.2	42.2	93	40.3	0	1	338	0.00	29.765 
22:15	42.1	42.1	42.1	93	40.2	1	2	315	0.00	29.767 
22:20	42.1	42.1	42.1	93	40.2	0	2	0	0.00	29.767 
22:25	41.9	41.9	41.9	93	40.0	0	2	0	0.00	29.767 
22:30	41.9	41.9	41.9	93	40.0	1	3	338	0.00	29.772 
22:35	41.9	41.9	41.9	93	40.0	1	4	0	0.00	29.772 
22:40	41.9	41.9	41.9	93	40.0	0	2	292	0.01	29.772 
22:45	41.9	41.9	41.9	93	40.0	0	4	315	0.00	29.780 
22:50	41.8	41.8	41.8	93	39.9	1	4	292	0.00	29.780 
22:55	41.8	41.8	41.8	93	39.9	0	2	292	0.00	29.780 
23:00	41.6	41.6	41.6	93	39.7	0	3	292	0.00	29.781 
23:05	41.6	41.6	41.6	93	39.7	0	2	292	0.00	29.781 
23:10	41.5	41.5	41.5	94	39.9	0	2	292	0.00	29.781 
23:15	41.5	41.5	41.5	94	39.9	0	4	292	0.00	29.783 
23:20	41.5	41.5	41.5	94	39.9	0	1	292	0.00	29.783 
23:25	41.3	41.3	41.3	94	39.7	0	5	292	0.00	29.783 
23:30	41.3	41.3	41.3	94	39.7	0	3	292	0.00	29.792 
23:35	41.2	41.2	41.2	94	39.6	1	3	292	0.00	29.792 
23:40	41.2	41.2	41.2	94	39.6	1	6	292	0.00	29.792 
23:45	41.1	41.1	41.1	94	39.5	1	4	292	0.00	29.797 
23:50	41.1	41.1	41.1	94	39.5	2	10	315	0.00	29.797 
23:55	40.9	40.9	40.9	94	39.3	2	6	315	0.00	29.797 

CoCoRaHS
IN-AL-39
A2 Web Hosting
Creative Commons License
GoDaddy
search engine by freefind advanced

loaded 2018-11-15 03:32:48 • last modified 2010-11-18 10:43:29
Privacy PolicyDisclaimer
• wx.awcolley.com is powered by PmWiki v.2002016 •
• all content (unless otherwise noted) © 2018 A W Colley